createdAt,value
2022-08-26T00:00:22.061Z,79.46
2022-08-26T00:01:29.111Z,79.22
2022-08-26T00:02:22.194Z,78.61
2022-08-26T00:03:21.978Z,78.48
2022-08-26T00:04:22.052Z,78.08
2022-08-26T00:05:21.975Z,77.78
2022-08-26T00:06:21.949Z,77.44
2022-08-26T00:07:21.928Z,77.24
2022-08-26T00:08:21.915Z,77.14
2022-08-26T00:09:21.900Z,77.04
2022-08-26T00:10:21.913Z,76.94
2022-08-26T00:11:26.388Z,76.94
2022-08-26T00:12:21.880Z,76.70
2022-08-26T00:13:21.864Z,76.70
2022-08-26T00:14:21.846Z,76.60
2022-08-26T00:15:21.829Z,76.40
2022-08-26T00:16:21.857Z,76.50
2022-08-26T00:17:21.821Z,76.40
2022-08-26T00:18:22.841Z,76.40
2022-08-26T00:19:21.789Z,76.20
2022-08-26T00:20:21.753Z,76.10
2022-08-26T00:21:21.740Z,76.00
2022-08-26T00:22:21.779Z,76.06
2022-08-26T00:23:24.180Z,75.76
2022-08-26T00:24:21.769Z,75.56
2022-08-26T00:25:21.717Z,75.37
2022-08-26T00:26:21.695Z,74.87
2022-08-26T00:27:21.681Z,74.46
2022-08-26T00:28:21.654Z,74.66
2022-08-26T00:29:21.651Z,75.06
2022-08-26T00:30:22.932Z,74.90
2022-08-26T00:31:21.702Z,74.70
2022-08-26T00:32:21.624Z,74.40
2022-08-26T00:33:21.605Z,74.60
2022-08-26T00:34:21.580Z,74.90
2022-08-26T00:35:21.581Z,75.30
2022-08-26T00:36:21.562Z,75.60
2022-08-26T00:37:21.538Z,75.60
2022-08-26T00:38:21.509Z,75.54
2022-08-26T00:39:21.522Z,75.34
2022-08-26T00:40:21.570Z,75.34
2022-08-26T00:41:21.471Z,75.74
2022-08-26T00:42:21.476Z,76.43
2022-08-26T00:43:21.455Z,76.04
2022-08-26T00:44:21.460Z,76.43
2022-08-26T00:45:21.420Z,75.54
2022-08-26T00:46:21.460Z,75.54
2022-08-26T00:47:21.403Z,75.23
2022-08-26T00:48:21.427Z,75.23
2022-08-26T00:49:21.407Z,75.43
2022-08-26T00:50:21.353Z,75.23
2022-08-26T00:51:21.346Z,75.34
2022-08-26T00:52:21.385Z,75.34
2022-08-26T00:53:21.306Z,75.04
2022-08-26T00:54:21.316Z,74.84
2022-08-26T00:55:21.296Z,75.04
2022-08-26T00:56:21.288Z,75.34
2022-08-26T00:57:21.258Z,75.54
2022-08-26T00:58:21.255Z,75.74
2022-08-26T00:59:21.230Z,76.14
2022-08-26T01:00:22.642Z,76.04
2022-08-26T01:01:22.951Z,75.34
2022-08-26T01:02:21.817Z,74.63
2022-08-26T01:03:21.190Z,74.23
2022-08-26T01:04:21.198Z,74.13
2022-08-26T01:05:21.201Z,73.93
2022-08-26T01:06:21.289Z,73.93
2022-08-26T01:07:21.174Z,73.93
2022-08-26T01:08:21.176Z,74.13
2022-08-26T01:09:21.125Z,74.27
2022-08-26T01:10:21.100Z,74.47
2022-08-26T01:11:21.097Z,74.37
2022-08-26T01:12:22.138Z,74.67
2022-08-26T01:13:21.052Z,74.87
2022-08-26T01:14:21.048Z,75.21
2022-08-26T01:15:21.025Z,75.21
2022-08-26T01:16:21.054Z,75.45
2022-08-26T01:17:21.029Z,75.74
2022-08-26T01:18:20.987Z,75.84
2022-08-26T01:19:20.988Z,75.98
2022-08-26T01:20:20.961Z,76.48
2022-08-26T01:21:20.957Z,76.82
2022-08-26T01:22:20.963Z,77.42
2022-08-26T01:23:21.710Z,77.92
2022-08-26T01:24:20.924Z,78.06
2022-08-26T01:25:20.889Z,78.27
2022-08-26T01:26:20.868Z,78.46
2022-08-26T01:27:20.861Z,78.66
2022-08-26T01:28:20.859Z,78.56
2022-08-26T01:29:20.830Z,78.53
2022-08-26T01:30:20.846Z,78.42
2022-08-26T01:31:20.936Z,78.63
2022-08-26T01:32:20.811Z,78.73
2022-08-26T01:33:20.781Z,78.79
2022-08-26T01:34:20.796Z,78.39
2022-08-26T01:35:20.808Z,78.15
2022-08-26T01:36:20.781Z,78.15
2022-08-26T01:37:20.743Z,78.15
2022-08-26T01:38:20.724Z,78.05
2022-08-26T01:39:20.734Z,77.85
2022-08-26T01:40:20.789Z,77.85
2022-08-26T01:41:27.191Z,77.95
2022-08-26T01:42:20.679Z,78.15
2022-08-26T01:43:20.682Z,78.25
2022-08-26T01:44:20.712Z,78.35
2022-08-26T01:45:20.671Z,78.25
2022-08-26T01:46:20.609Z,78.35
2022-08-26T01:47:20.600Z,78.45
2022-08-26T01:48:20.599Z,78.45
2022-08-26T01:49:20.590Z,78.45
2022-08-26T01:50:28.062Z,78.35
2022-08-26T01:51:20.613Z,78.45
2022-08-26T01:52:20.523Z,78.55
2022-08-26T01:53:21.444Z,78.05
2022-08-26T01:54:20.660Z,77.99
2022-08-26T01:55:33.303Z,77.79
2022-08-26T01:56:20.491Z,77.99
2022-08-26T01:57:20.481Z,78.39
2022-08-26T01:58:20.449Z,78.79
2022-08-26T01:59:20.451Z,79.09
2022-08-26T02:00:20.534Z,79.03
2022-08-26T02:01:20.449Z,78.83
2022-08-26T02:02:20.428Z,78.73
2022-08-26T02:03:20.376Z,78.66
2022-08-26T02:04:20.562Z,78.46
2022-08-26T02:05:20.362Z,78.46
2022-08-26T02:06:20.382Z,78.56
2022-08-26T02:07:20.379Z,78.46
2022-08-26T02:08:25.291Z,78.56
2022-08-26T02:09:20.386Z,78.77
2022-08-26T02:10:20.314Z,78.86
2022-08-26T02:11:20.277Z,79.13
2022-08-26T02:12:20.293Z,79.13
2022-08-26T02:13:20.260Z,79.03
2022-08-26T02:14:20.224Z,78.69
2022-08-26T02:15:20.262Z,78.49
2022-08-26T02:16:20.232Z,78.29
2022-08-26T02:17:20.195Z,78.05
2022-08-26T02:18:20.203Z,77.75
2022-08-26T02:19:20.202Z,77.55
2022-08-26T02:20:20.179Z,77.65
2022-08-26T02:21:20.143Z,77.55
2022-08-26T02:22:21.131Z,77.75
2022-08-26T02:23:20.143Z,77.95
2022-08-26T02:24:20.103Z,78.29
2022-08-26T02:25:20.132Z,78.79
2022-08-26T02:26:20.079Z,79.13
2022-08-26T02:27:20.067Z,79.33
2022-08-26T02:28:20.068Z,79.63
2022-08-26T02:29:20.035Z,79.83
2022-08-26T02:30:20.060Z,80.04
2022-08-26T02:31:20.102Z,80.04
2022-08-26T02:32:20.028Z,79.93
2022-08-26T02:33:20.051Z,80.33
2022-08-26T02:34:19.982Z,80.33
2022-08-26T02:35:20.261Z,80.54
2022-08-26T02:36:19.949Z,80.63
2022-08-26T02:37:20.185Z,80.54
2022-08-26T02:38:19.923Z,80.33
2022-08-26T02:39:22.045Z,80.13
2022-08-26T02:40:19.948Z,79.93
2022-08-26T02:41:19.890Z,79.43
2022-08-26T02:42:19.866Z,79.29
2022-08-26T02:43:19.861Z,79.39
2022-08-26T02:44:20.278Z,79.53
2022-08-26T02:45:23.183Z,78.73
2022-08-26T02:46:21.525Z,78.33
2022-08-26T02:47:19.837Z,78.77
2022-08-26T02:48:19.824Z,79.17
2022-08-26T02:49:19.811Z,79.27
2022-08-26T02:50:19.759Z,79.30
2022-08-26T02:51:19.748Z,78.80
2022-08-26T02:52:19.773Z,78.80
2022-08-26T02:53:24.934Z,79.04
2022-08-26T02:54:19.770Z,79.24
2022-08-26T02:55:19.699Z,79.68
2022-08-26T02:56:19.669Z,79.88
2022-08-26T02:57:19.664Z,80.52
2022-08-26T02:58:19.682Z,81.13
2022-08-26T02:59:19.660Z,81.37
2022-08-26T03:00:19.652Z,81.67
2022-08-26T03:01:19.669Z,81.67
2022-08-26T03:02:19.725Z,81.17
2022-08-26T03:03:19.584Z,81.07
2022-08-26T03:04:19.589Z,81.17
2022-08-26T03:05:19.553Z,81.57
2022-08-26T03:06:19.557Z,81.57
2022-08-26T03:07:19.518Z,81.53
2022-08-26T03:08:19.525Z,81.43
2022-08-26T03:09:19.547Z,81.59
2022-08-26T03:10:19.484Z,81.90
2022-08-26T03:11:19.459Z,81.99
2022-08-26T03:12:19.476Z,81.85
2022-08-26T03:13:19.481Z,81.76
2022-08-26T03:14:19.463Z,81.41
2022-08-26T03:15:19.472Z,80.91
2022-08-26T03:16:19.441Z,80.71
2022-08-26T03:17:19.395Z,80.81
2022-08-26T03:18:19.431Z,80.25
2022-08-26T03:19:19.363Z,80.79
2022-08-26T03:20:19.363Z,81.19
2022-08-26T03:21:19.360Z,81.93
2022-08-26T03:22:19.322Z,81.93
2022-08-26T03:23:19.366Z,82.18
2022-08-26T03:24:19.300Z,82.58
2022-08-26T03:25:19.303Z,82.92
2022-08-26T03:26:19.279Z,82.92
2022-08-26T03:27:19.253Z,83.02
2022-08-26T03:28:19.397Z,83.36
2022-08-26T03:29:19.280Z,83.46
2022-08-26T03:30:19.229Z,83.26
2022-08-26T03:31:19.261Z,83.26
2022-08-26T03:32:19.209Z,83.56
2022-08-26T03:33:19.167Z,83.76
2022-08-26T03:34:19.192Z,84.41
2022-08-26T03:35:19.149Z,85.42
2022-08-26T03:36:19.164Z,85.88
2022-08-26T03:37:19.135Z,85.98
2022-08-26T03:38:19.142Z,86.08
2022-08-26T03:39:19.091Z,86.08
2022-08-26T03:40:20.385Z,86.08
2022-08-26T03:41:19.082Z,85.94
2022-08-26T03:42:21.434Z,85.34
2022-08-26T03:43:19.081Z,84.49
2022-08-26T03:44:19.040Z,83.99
2022-08-26T03:45:19.017Z,83.69
2022-08-26T03:46:19.042Z,83.59
2022-08-26T03:47:18.997Z,83.59
2022-08-26T03:48:19.011Z,83.69
2022-08-26T03:49:18.996Z,83.93
2022-08-26T03:50:22.886Z,84.13
2022-08-26T03:51:19.087Z,84.13
2022-08-26T03:52:18.972Z,84.23
2022-08-26T03:53:20.471Z,84.33
2022-08-26T03:54:18.893Z,84.43
2022-08-26T03:55:18.902Z,84.43
2022-08-26T03:56:18.882Z,84.33
2022-08-26T03:57:18.862Z,84.29
2022-08-26T03:58:18.876Z,84.49
2022-08-26T03:59:18.825Z,84.39
2022-08-26T04:00:18.829Z,83.95
2022-08-26T04:01:19.033Z,83.75
2022-08-26T04:02:18.793Z,83.65
2022-08-26T04:03:19.226Z,83.54
2022-08-26T04:04:18.761Z,83.54
2022-08-26T04:05:18.764Z,83.75
2022-08-26T04:06:18.742Z,83.84
2022-08-26T04:07:18.761Z,84.05
2022-08-26T04:08:18.727Z,84.05
2022-08-26T04:09:18.689Z,83.84
2022-08-26T04:10:20.309Z,84.25
2022-08-26T04:11:18.675Z,84.35
2022-08-26T04:12:18.678Z,84.01
2022-08-26T04:13:18.722Z,84.15
2022-08-26T04:14:20.269Z,84.25
2022-08-26T04:15:18.625Z,84.45
2022-08-26T04:16:18.660Z,84.45
2022-08-26T04:17:18.614Z,83.84
2022-08-26T04:18:18.598Z,83.45
2022-08-26T04:19:18.582Z,83.08
2022-08-26T04:20:18.550Z,83.39
2022-08-26T04:21:18.550Z,83.59
2022-08-26T04:22:24.853Z,83.39
2022-08-26T04:23:18.514Z,83.18
2022-08-26T04:24:18.518Z,82.64
2022-08-26T04:25:18.560Z,82.14
2022-08-26T04:26:18.470Z,82.14
2022-08-26T04:27:18.460Z,82.24
2022-08-26T04:28:18.487Z,82.30
2022-08-26T04:29:18.476Z,81.99
2022-08-26T04:30:18.458Z,81.79
2022-08-26T04:31:18.459Z,81.19
2022-08-26T04:32:18.407Z,80.75
2022-08-26T04:33:18.416Z,80.58
2022-08-26T04:34:18.390Z,81.09
2022-08-26T04:35:20.862Z,81.63
2022-08-26T04:36:19.804Z,81.84
2022-08-26T04:37:18.335Z,81.98
2022-08-26T04:38:18.324Z,82.48
2022-08-26T04:39:18.619Z,82.92
2022-08-26T04:40:18.365Z,83.32
2022-08-26T04:41:18.947Z,83.02
2022-08-26T04:42:23.294Z,83.06
2022-08-26T04:43:18.300Z,83.26
2022-08-26T04:44:18.258Z,83.56
2022-08-26T04:45:18.285Z,83.93
2022-08-26T04:46:18.298Z,84.03
2022-08-26T04:47:18.239Z,84.03
2022-08-26T04:48:18.178Z,83.89
2022-08-26T04:49:18.184Z,83.79
2022-08-26T04:50:18.168Z,82.58
2022-08-26T04:51:18.145Z,81.67
2022-08-26T04:52:18.137Z,82.01
2022-08-26T04:53:18.163Z,82.31
2022-08-26T04:54:18.098Z,82.92
2022-08-26T04:55:18.101Z,83.12
2022-08-26T04:56:18.833Z,83.22
2022-08-26T04:57:18.090Z,83.12
2022-08-26T04:58:18.057Z,83.56
2022-08-26T04:59:18.416Z,84.17
2022-08-26T05:00:18.021Z,84.47
2022-08-26T05:01:18.045Z,84.27
2022-08-26T05:02:17.993Z,83.66
2022-08-26T05:03:18.007Z,83.46
2022-08-26T05:04:18.736Z,83.46
2022-08-26T05:05:18.038Z,83.26
2022-08-26T05:06:19.106Z,83.26
2022-08-26T05:07:17.972Z,83.40
2022-08-26T05:08:17.987Z,83.50
2022-08-26T05:09:17.900Z,83.66
2022-08-26T05:10:17.942Z,83.97
2022-08-26T05:11:17.885Z,84.07
2022-08-26T05:12:17.898Z,84.03
2022-08-26T05:13:17.926Z,83.83
2022-08-26T05:14:17.834Z,83.83
2022-08-26T05:15:17.861Z,83.99
2022-08-26T05:16:17.949Z,84.29
2022-08-26T05:17:17.822Z,84.29
2022-08-26T05:18:17.786Z,84.39
2022-08-26T05:19:19.172Z,84.45
2022-08-26T05:20:17.750Z,84.45
2022-08-26T05:21:17.757Z,84.45
2022-08-26T05:22:18.348Z,84.45
2022-08-26T05:23:17.711Z,84.45
2022-08-26T05:24:17.790Z,84.45
2022-08-26T05:25:17.707Z,84.55
2022-08-26T05:26:17.672Z,84.55
2022-08-26T05:27:17.788Z,84.55
2022-08-26T05:28:17.654Z,84.75
2022-08-26T05:29:17.643Z,84.61
2022-08-26T05:30:17.637Z,84.31
2022-08-26T05:31:17.646Z,84.11
2022-08-26T05:32:17.607Z,84.01
2022-08-26T05:33:17.654Z,83.97
2022-08-26T05:34:17.555Z,83.97
2022-08-26T05:35:17.586Z,83.87
2022-08-26T05:36:17.659Z,84.17
2022-08-26T05:37:17.560Z,84.17
2022-08-26T05:38:17.522Z,84.03
2022-08-26T05:39:17.505Z,83.83
2022-08-26T05:40:17.523Z,83.33
2022-08-26T05:41:17.478Z,83.03
2022-08-26T05:42:17.494Z,82.68
2022-08-26T05:43:17.448Z,82.28
2022-08-26T05:44:17.426Z,82.28
2022-08-26T05:45:17.425Z,82.28
2022-08-26T05:46:17.497Z,82.18
2022-08-26T05:47:17.463Z,82.18
2022-08-26T05:48:17.394Z,82.14
2022-08-26T05:49:17.368Z,82.24
2022-08-26T05:50:17.419Z,82.34
2022-08-26T05:51:17.390Z,82.75
2022-08-26T05:52:17.314Z,82.75
2022-08-26T05:53:17.581Z,82.75
2022-08-26T05:54:21.716Z,83.04
2022-08-26T05:55:17.340Z,83.01
2022-08-26T05:56:17.296Z,82.90
2022-08-26T05:57:17.263Z,83.31
2022-08-26T05:58:17.478Z,83.31
2022-08-26T05:59:17.242Z,83.07
2022-08-26T06:00:17.263Z,82.97
2022-08-26T06:01:17.340Z,83.07
2022-08-26T06:02:17.315Z,83.27
2022-08-26T06:03:17.226Z,83.77
2022-08-26T06:04:17.157Z,83.77
2022-08-26T06:05:17.158Z,84.07
2022-08-26T06:06:20.763Z,83.97
2022-08-26T06:07:17.148Z,83.87
2022-08-26T06:08:19.287Z,83.87
2022-08-26T06:09:17.466Z,83.97
2022-08-26T06:10:33.104Z,83.93
2022-08-26T06:11:18.651Z,83.73
2022-08-26T06:12:17.206Z,83.53
2022-08-26T06:13:17.052Z,83.73
2022-08-26T06:14:17.063Z,83.83
2022-08-26T06:15:17.023Z,83.83
2022-08-26T06:16:17.088Z,83.79
2022-08-26T06:17:16.980Z,83.59
2022-08-26T06:18:17.006Z,83.39
2022-08-26T06:19:16.954Z,83.09
2022-08-26T06:20:17.050Z,82.79
2022-08-26T06:21:16.943Z,82.45
2022-08-26T06:22:20.639Z,82.35
2022-08-26T06:23:16.921Z,82.15
2022-08-26T06:24:16.920Z,81.95
2022-08-26T06:25:16.903Z,81.74
2022-08-26T06:26:16.894Z,81.55
2022-08-26T06:27:16.873Z,81.45
2022-08-26T06:28:16.842Z,81.24
2022-08-26T06:29:24.384Z,81.01
2022-08-26T06:30:16.868Z,81.04
2022-08-26T06:31:16.857Z,81.15
2022-08-26T06:32:16.799Z,81.04
2022-08-26T06:33:16.800Z,81.15
2022-08-26T06:34:16.795Z,81.35
2022-08-26T06:35:16.769Z,81.04
2022-08-26T06:36:16.729Z,80.85
2022-08-26T06:37:16.755Z,80.85
2022-08-26T06:38:16.709Z,81.04
2022-08-26T06:39:16.705Z,81.15
2022-08-26T06:40:16.765Z,81.35
2022-08-26T06:41:16.667Z,81.24
2022-08-26T06:42:16.674Z,80.85
2022-08-26T06:43:16.671Z,80.71
2022-08-26T06:44:16.804Z,80.71
2022-08-26T06:45:16.636Z,80.61
2022-08-26T06:46:16.655Z,80.41
2022-08-26T06:47:17.415Z,80.51
2022-08-26T06:48:16.614Z,80.00
2022-08-26T06:49:17.296Z,79.80
2022-08-26T06:50:16.597Z,79.77
2022-08-26T06:51:16.618Z,79.67
2022-08-26T06:52:21.175Z,79.86
2022-08-26T06:53:16.529Z,79.27
2022-08-26T06:54:16.509Z,78.86
2022-08-26T06:55:16.507Z,78.63
2022-08-26T06:56:16.462Z,78.63
2022-08-26T06:57:16.718Z,78.53
2022-08-26T06:58:16.442Z,78.53
2022-08-26T06:59:16.519Z,78.73
2022-08-26T07:00:16.422Z,78.23
2022-08-26T07:01:16.445Z,78.03
2022-08-26T07:02:16.430Z,77.79
2022-08-26T07:03:16.462Z,77.39
2022-08-26T07:04:20.302Z,77.49
2022-08-26T07:05:16.420Z,77.59
2022-08-26T07:06:16.614Z,77.59
2022-08-26T07:07:16.441Z,77.39
2022-08-26T07:08:16.307Z,77.39
2022-08-26T07:09:16.350Z,76.69
2022-08-26T07:10:16.295Z,76.29
2022-08-26T07:11:16.269Z,76.29
2022-08-26T07:12:16.260Z,75.85
2022-08-26T07:13:16.232Z,74.85
2022-08-26T07:14:16.273Z,75.05
2022-08-26T07:15:16.235Z,75.35
2022-08-26T07:16:16.288Z,75.16
2022-08-26T07:17:16.206Z,75.05
2022-08-26T07:18:16.171Z,74.76
2022-08-26T07:19:16.155Z,74.76
2022-08-26T07:20:16.175Z,74.82
2022-08-26T07:21:16.149Z,74.46
2022-08-26T07:22:16.120Z,73.96
2022-08-26T07:23:16.114Z,74.96
2022-08-26T07:24:16.113Z,74.66
2022-08-26T07:25:16.104Z,74.92
2022-08-26T07:26:16.095Z,75.02
2022-08-26T07:27:16.069Z,74.82
2022-08-26T07:28:16.036Z,74.32
2022-08-26T07:29:16.049Z,74.38
2022-08-26T07:30:16.083Z,74.08
2022-08-26T07:31:16.111Z,73.09
2022-08-26T07:32:16.014Z,73.05
2022-08-26T07:33:15.975Z,72.75
2022-08-26T07:34:15.956Z,72.95
2022-08-26T07:35:15.985Z,72.95
2022-08-26T07:36:15.937Z,73.75
2022-08-26T07:37:15.948Z,73.65
2022-08-26T07:38:15.933Z,73.65
2022-08-26T07:39:15.910Z,74.65
2022-08-26T07:40:15.959Z,74.35
2022-08-26T07:41:15.969Z,72.99
2022-08-26T07:42:15.892Z,72.59
2022-08-26T07:43:15.855Z,72.29
2022-08-26T07:44:15.956Z,72.19
2022-08-26T07:45:15.833Z,72.65
2022-08-26T07:46:16.558Z,72.35
2022-08-26T07:47:25.040Z,71.56
2022-08-26T07:48:15.858Z,71.66
2022-08-26T07:49:15.809Z,71.86
2022-08-26T07:50:15.793Z,72.16
2022-08-26T07:51:15.791Z,71.62
2022-08-26T07:52:15.758Z,71.52
2022-08-26T07:53:15.743Z,71.98
2022-08-26T07:54:15.692Z,71.39
2022-08-26T07:55:15.703Z,71.15
2022-08-26T07:56:15.679Z,70.62
2022-08-26T07:57:15.703Z,69.69
2022-08-26T07:58:15.693Z,68.50
2022-08-26T07:59:15.665Z,68.96
2022-08-26T08:00:15.731Z,67.57
2022-08-26T08:01:15.693Z,67.63
2022-08-26T08:02:15.617Z,67.11
2022-08-26T08:03:15.620Z,66.97
2022-08-26T08:04:15.575Z,65.95
2022-08-26T08:05:15.642Z,65.85
2022-08-26T08:06:15.553Z,64.53
2022-08-26T08:07:15.572Z,63.70
2022-08-26T08:08:26.339Z,63.08
2022-08-26T08:09:16.082Z,62.45
2022-08-26T08:10:15.485Z,61.56
2022-08-26T08:11:15.489Z,61.43
2022-08-26T08:12:15.508Z,61.33
2022-08-26T08:13:15.452Z,61.86
2022-08-26T08:14:15.513Z,62.12
2022-08-26T08:15:15.417Z,62.12
2022-08-26T08:16:15.424Z,61.86
2022-08-26T08:17:15.453Z,62.08
2022-08-26T08:18:15.997Z,63.48
2022-08-26T08:19:15.457Z,63.28
2022-08-26T08:20:15.370Z,62.75
2022-08-26T08:21:22.172Z,61.96
2022-08-26T08:22:17.953Z,61.56
2022-08-26T08:23:15.332Z,61.46
2022-08-26T08:24:15.348Z,61.89
2022-08-26T08:25:15.301Z,62.31
2022-08-26T08:26:15.305Z,63.24
2022-08-26T08:27:16.459Z,62.84
2022-08-26T08:28:15.261Z,63.04
2022-08-26T08:29:15.286Z,63.04
2022-08-26T08:30:15.280Z,63.73
2022-08-26T08:31:15.313Z,62.41
2022-08-26T08:32:15.356Z,61.49
2022-08-26T08:33:15.203Z,61.79
2022-08-26T08:34:15.203Z,61.59
2022-08-26T08:35:15.197Z,61.10
2022-08-26T08:36:18.439Z,61.22
2022-08-26T08:37:15.152Z,61.22
2022-08-26T08:38:15.137Z,61.39
2022-08-26T08:39:15.146Z,61.10
2022-08-26T08:40:15.204Z,61.29
2022-08-26T08:41:15.093Z,60.99
2022-08-26T08:42:15.076Z,62.45
2022-08-26T08:43:15.077Z,61.69
2022-08-26T08:44:15.081Z,61.59
2022-08-26T08:45:15.053Z,61.39
2022-08-26T08:46:15.061Z,60.77
2022-08-26T08:47:15.037Z,60.96
2022-08-26T08:48:15.045Z,61.16
2022-08-26T08:49:15.016Z,60.20
2022-08-26T08:50:15.008Z,60.53
2022-08-26T08:51:14.955Z,61.32
2022-08-26T08:52:14.955Z,60.72
2022-08-26T08:53:14.971Z,60.60
2022-08-26T08:54:14.925Z,60.99
2022-08-26T08:55:18.068Z,60.37
2022-08-26T08:56:14.893Z,60.37
2022-08-26T08:57:14.922Z,59.58
2022-08-26T08:58:14.864Z,59.48
2022-08-26T08:59:14.871Z,59.45
2022-08-26T09:00:14.861Z,59.84
2022-08-26T09:01:14.865Z,59.75
2022-08-26T09:02:14.867Z,59.62
2022-08-26T09:03:14.810Z,58.92
2022-08-26T09:04:17.326Z,58.23
2022-08-26T09:05:15.416Z,57.44
2022-08-26T09:06:14.790Z,57.93
2022-08-26T09:07:14.767Z,57.81
2022-08-26T09:08:14.723Z,57.41
2022-08-26T09:09:14.769Z,57.41
2022-08-26T09:10:14.737Z,57.88
2022-08-26T09:11:14.714Z,57.68
2022-08-26T09:12:14.685Z,56.46
2022-08-26T09:13:17.056Z,56.59
2022-08-26T09:14:14.666Z,56.10
2022-08-26T09:15:14.654Z,56.79
2022-08-26T09:16:14.652Z,56.59
2022-08-26T09:17:14.618Z,57.09
2022-08-26T09:18:14.657Z,57.26
2022-08-26T09:19:14.685Z,56.46
2022-08-26T09:20:14.609Z,56.89
2022-08-26T09:21:14.582Z,57.18
2022-08-26T09:22:14.582Z,57.58
2022-08-26T09:23:14.543Z,57.35
2022-08-26T09:24:14.538Z,56.86
2022-08-26T09:25:14.519Z,56.54
2022-08-26T09:26:14.522Z,56.44
2022-08-26T09:27:14.494Z,56.54
2022-08-26T09:28:14.466Z,56.63
2022-08-26T09:29:14.496Z,56.14
2022-08-26T09:30:14.461Z,56.74
2022-08-26T09:31:14.482Z,56.51
2022-08-26T09:32:14.432Z,55.62
2022-08-26T09:33:14.708Z,55.55
2022-08-26T09:34:17.044Z,55.15
2022-08-26T09:35:14.388Z,56.84
2022-08-26T09:36:14.362Z,56.63
2022-08-26T09:37:14.372Z,55.92
2022-08-26T09:38:14.436Z,55.43
2022-08-26T09:39:14.444Z,56.91
2022-08-26T09:40:14.361Z,56.91
2022-08-26T09:41:14.320Z,56.61
2022-08-26T09:42:14.449Z,56.41
2022-08-26T09:43:14.303Z,57.28
2022-08-26T09:44:14.609Z,55.60
2022-08-26T09:45:14.273Z,55.20
2022-08-26T09:46:14.356Z,55.37
2022-08-26T09:47:14.275Z,53.99
2022-08-26T09:48:14.245Z,54.48
2022-08-26T09:49:14.267Z,54.28
2022-08-26T09:50:14.223Z,54.38
2022-08-26T09:51:14.168Z,54.68
2022-08-26T09:52:14.163Z,54.38
2022-08-26T09:53:14.159Z,54.28
2022-08-26T09:54:14.179Z,55.07
2022-08-26T09:55:14.129Z,54.97
2022-08-26T09:56:14.118Z,54.46
2022-08-26T09:57:14.106Z,55.62
2022-08-26T09:58:14.105Z,53.74
2022-08-26T09:59:14.167Z,53.42
2022-08-26T10:00:14.070Z,52.31
2022-08-26T10:01:14.126Z,51.92
2022-08-26T10:02:14.054Z,52.11
2022-08-26T10:03:17.250Z,52.21
2022-08-26T10:04:14.172Z,52.33
2022-08-26T10:05:13.997Z,52.23
2022-08-26T10:06:13.987Z,52.21
2022-08-26T10:07:14.004Z,52.90
2022-08-26T10:08:13.958Z,52.38
2022-08-26T10:09:14.033Z,51.86
2022-08-26T10:10:13.926Z,52.26
2022-08-26T10:11:13.927Z,51.93
2022-08-26T10:12:13.933Z,51.32
2022-08-26T10:13:13.892Z,50.71
2022-08-26T10:14:13.898Z,50.12
2022-08-26T10:15:13.886Z,50.71
2022-08-26T10:16:13.890Z,51.40
2022-08-26T10:17:13.853Z,51.59
2022-08-26T10:18:13.816Z,50.49
2022-08-26T10:19:13.888Z,49.29
2022-08-26T10:20:22.851Z,48.89
2022-08-26T10:21:13.801Z,49.16
2022-08-26T10:22:13.788Z,48.89
2022-08-26T10:23:14.083Z,49.60
2022-08-26T10:24:13.740Z,50.29
2022-08-26T10:25:13.740Z,50.51
2022-08-26T10:26:13.762Z,50.42
2022-08-26T10:27:13.745Z,50.44
2022-08-26T10:28:13.698Z,50.95
2022-08-26T10:29:13.693Z,50.85
2022-08-26T10:30:13.673Z,51.25
2022-08-26T10:31:13.700Z,51.35
2022-08-26T10:32:13.847Z,50.95
2022-08-26T10:33:13.653Z,51.57
2022-08-26T10:34:14.080Z,51.67
2022-08-26T10:35:13.610Z,51.86
2022-08-26T10:36:15.281Z,51.54
2022-08-26T10:37:16.104Z,51.35
2022-08-26T10:38:13.675Z,50.59
2022-08-26T10:39:13.593Z,50.68
2022-08-26T10:40:13.593Z,51.07
2022-08-26T10:41:13.539Z,50.59
2022-08-26T10:42:13.540Z,51.18
2022-08-26T10:43:13.517Z,50.49
2022-08-26T10:44:13.519Z,50.66
2022-08-26T10:45:14.950Z,50.46
2022-08-26T10:46:13.574Z,50.07
2022-08-26T10:47:13.453Z,49.28
2022-08-26T10:48:13.436Z,49.55
2022-08-26T10:49:13.472Z,49.06
2022-08-26T10:50:14.528Z,48.47
2022-08-26T10:51:13.418Z,48.35
2022-08-26T10:52:16.468Z,47.36
2022-08-26T10:53:13.384Z,48.15
2022-08-26T10:54:13.641Z,47.96
2022-08-26T10:55:13.358Z,47.74
2022-08-26T10:56:18.717Z,47.83
2022-08-26T10:57:13.353Z,47.64
2022-08-26T10:58:13.484Z,47.44
2022-08-26T10:59:13.402Z,46.75
2022-08-26T11:00:13.375Z,47.07
2022-08-26T11:01:13.378Z,47.36
2022-08-26T11:02:13.272Z,47.47
2022-08-26T11:03:22.091Z,47.66
2022-08-26T11:04:13.278Z,48.05
2022-08-26T11:05:13.216Z,48.55
2022-08-26T11:06:13.218Z,47.86
2022-08-26T11:07:13.209Z,48.57
2022-08-26T11:08:13.210Z,48.67
2022-08-26T11:09:13.190Z,48.47
2022-08-26T11:10:13.206Z,47.98
2022-08-26T11:11:13.174Z,48.65
2022-08-26T11:12:13.169Z,49.13
2022-08-26T11:13:13.160Z,47.86
2022-08-26T11:14:13.276Z,47.15
2022-08-26T11:15:13.249Z,47.44
2022-08-26T11:16:13.168Z,46.56
2022-08-26T11:17:13.109Z,47.05
2022-08-26T11:18:13.052Z,47.03
2022-08-26T11:19:13.041Z,46.24
2022-08-26T11:20:13.763Z,48.40
2022-08-26T11:21:13.010Z,46.51
2022-08-26T11:22:13.040Z,47.10
2022-08-26T11:23:13.000Z,47.00
2022-08-26T11:24:12.979Z,47.20
2022-08-26T11:25:12.970Z,47.69
2022-08-26T11:26:12.965Z,46.71
2022-08-26T11:27:13.017Z,47.10
2022-08-26T11:28:12.954Z,45.92
2022-08-26T11:29:13.633Z,46.73
2022-08-26T11:30:12.954Z,47.03
2022-08-26T11:31:12.993Z,47.61
2022-08-26T11:32:12.932Z,47.25
2022-08-26T11:33:12.869Z,48.13
2022-08-26T11:34:12.856Z,47.64
2022-08-26T11:35:12.878Z,47.15
2022-08-26T11:36:12.847Z,47.34
2022-08-26T11:37:12.822Z,47.44
2022-08-26T11:38:12.830Z,46.56
2022-08-26T11:39:12.793Z,47.34
2022-08-26T11:40:12.926Z,46.66
2022-08-26T11:41:12.759Z,46.46
2022-08-26T11:42:12.773Z,45.97
2022-08-26T11:43:12.747Z,47.07
2022-08-26T11:44:12.738Z,47.93
2022-08-26T11:45:12.708Z,47.54
2022-08-26T11:46:12.815Z,46.24
2022-08-26T11:47:12.683Z,45.85
2022-08-26T11:48:12.707Z,45.24
2022-08-26T11:49:12.688Z,44.74
2022-08-26T11:50:12.728Z,44.53
2022-08-26T11:51:13.465Z,45.49
2022-08-26T11:52:12.645Z,44.31
2022-08-26T11:53:12.606Z,44.70
2022-08-26T11:54:12.614Z,44.60
2022-08-26T11:55:12.583Z,43.62
2022-08-26T11:56:12.587Z,44.31
2022-08-26T11:57:12.597Z,44.23
2022-08-26T11:58:12.539Z,44.12
2022-08-26T11:59:12.553Z,43.92
2022-08-26T12:00:14.260Z,43.52
2022-08-26T12:01:12.559Z,43.52
2022-08-26T12:02:12.469Z,43.52
2022-08-26T12:03:12.777Z,43.21
2022-08-26T12:04:12.634Z,43.31
2022-08-26T12:05:12.483Z,42.82
2022-08-26T12:06:14.163Z,42.72
2022-08-26T12:07:12.437Z,42.62
2022-08-26T12:08:12.476Z,42.72
2022-08-26T12:09:12.431Z,42.62
2022-08-26T12:10:12.396Z,43.02
2022-08-26T12:11:12.368Z,43.13
2022-08-26T12:12:12.389Z,43.13
2022-08-26T12:13:12.355Z,43.72
2022-08-26T12:14:12.325Z,43.92
2022-08-26T12:15:12.321Z,44.19
2022-08-26T12:16:12.361Z,43.60
2022-08-26T12:17:12.338Z,43.21
2022-08-26T12:18:12.287Z,43.31
2022-08-26T12:19:12.303Z,43.62
2022-08-26T12:20:12.340Z,44.70
2022-08-26T12:21:12.254Z,45.12
2022-08-26T12:22:12.247Z,45.31
2022-08-26T12:23:12.229Z,45.51
2022-08-26T12:24:12.228Z,45.31
2022-08-26T12:25:12.228Z,46.02
2022-08-26T12:26:12.186Z,45.92
2022-08-26T12:27:12.181Z,45.73
2022-08-26T12:28:12.162Z,46.44
2022-08-26T12:29:20.350Z,46.24
2022-08-26T12:30:12.633Z,47.03
2022-08-26T12:31:12.175Z,47.25
2022-08-26T12:32:12.115Z,47.34
2022-08-26T12:33:22.050Z,47.25
2022-08-26T12:34:17.573Z,47.25
2022-08-26T12:35:12.098Z,47.54
2022-08-26T12:36:12.088Z,47.54
2022-08-26T12:37:12.067Z,47.96
2022-08-26T12:38:12.018Z,48.15
2022-08-26T12:39:12.032Z,48.35
2022-08-26T12:40:12.108Z,48.45
2022-08-26T12:41:11.980Z,48.82
2022-08-26T12:42:12.010Z,48.13
2022-08-26T12:43:11.972Z,47.54
2022-08-26T12:44:11.972Z,47.61
2022-08-26T12:45:11.942Z,47.13
2022-08-26T12:46:11.928Z,47.32
2022-08-26T12:47:11.955Z,48.60
2022-08-26T12:48:11.936Z,48.01
2022-08-26T12:49:11.921Z,47.52
2022-08-26T12:50:11.895Z,46.83
2022-08-26T12:51:11.875Z,46.14
2022-08-26T12:52:11.847Z,46.63